createdAt,value
2023-05-19T00:00:28.675Z,6.00
2023-05-19T00:03:17.939Z,7.17
2023-05-19T00:06:06.278Z,5.67
2023-05-19T00:08:58.394Z,6.93
2023-05-19T00:11:47.559Z,7.53
2023-05-19T00:14:36.124Z,7.23
2023-05-19T00:17:23.810Z,6.37
2023-05-19T00:20:12.797Z,5.77
2023-05-19T00:22:59.966Z,6.63
2023-05-19T00:25:47.178Z,6.20
2023-05-19T00:28:35.897Z,6.60
2023-05-19T00:31:22.890Z,5.77
2023-05-19T00:34:09.900Z,6.47
2023-05-19T00:36:57.328Z,8.33
2023-05-19T00:39:44.466Z,7.23
2023-05-19T00:42:32.743Z,5.90
2023-05-19T00:45:21.466Z,7.63
2023-05-19T00:48:08.827Z,6.90
2023-05-19T00:51:02.104Z,7.50
2023-05-19T00:53:52.083Z,6.80
2023-05-19T00:56:38.966Z,7.97
2023-05-19T00:59:26.970Z,7.53
2023-05-19T01:02:16.395Z,7.50
2023-05-19T01:05:03.870Z,8.13
2023-05-19T01:07:53.562Z,8.10
2023-05-19T01:10:40.498Z,8.03
2023-05-19T01:13:28.537Z,7.87
2023-05-19T01:16:23.674Z,8.13
2023-05-19T01:19:25.598Z,8.73
2023-05-19T01:22:33.717Z,9.10
2023-05-19T01:25:43.635Z,9.03
2023-05-19T01:28:49.130Z,10.30
2023-05-19T01:31:39.173Z,9.57
2023-05-19T01:34:29.005Z,9.90
2023-05-19T01:37:16.594Z,9.50
2023-05-19T01:40:04.276Z,10.07
2023-05-19T01:42:52.876Z,10.57
2023-05-19T01:45:40.339Z,10.67
2023-05-19T01:48:29.092Z,10.30
2023-05-19T01:51:17.841Z,9.83
2023-05-19T01:54:05.265Z,10.37
2023-05-19T01:56:59.115Z,10.00
2023-05-19T01:59:53.756Z,9.90
2023-05-19T02:02:51.740Z,10.00
2023-05-19T02:05:45.835Z,9.60
2023-05-19T02:08:41.947Z,9.70
2023-05-19T02:11:32.723Z,9.33
2023-05-19T02:14:24.355Z,9.70
2023-05-19T02:17:12.975Z,10.00
2023-05-19T02:20:00.635Z,10.40
2023-05-19T02:22:49.082Z,10.77
2023-05-19T02:25:36.497Z,10.53
2023-05-19T02:28:23.820Z,10.83
2023-05-19T02:31:10.719Z,10.47
2023-05-19T02:33:57.636Z,10.83
2023-05-19T02:36:44.822Z,11.40
2023-05-19T02:39:35.287Z,11.57
2023-05-19T02:42:22.770Z,12.10
2023-05-19T02:45:10.807Z,12.33
2023-05-19T02:48:01.157Z,12.83
2023-05-19T02:50:48.058Z,11.93
2023-05-19T02:53:35.105Z,12.90
2023-05-19T02:56:23.706Z,13.50
2023-05-19T02:59:11.021Z,12.90
2023-05-19T03:02:03.552Z,12.27
2023-05-19T03:04:50.977Z,13.80
2023-05-19T03:07:38.209Z,13.30
2023-05-19T03:10:25.009Z,13.03
2023-05-19T03:13:13.570Z,13.27
2023-05-19T03:16:02.088Z,12.87
2023-05-19T03:18:49.516Z,13.03
2023-05-19T03:21:37.604Z,12.63
2023-05-19T03:24:25.123Z,13.33
2023-05-19T03:27:13.492Z,13.67
2023-05-19T03:30:02.702Z,13.27
2023-05-19T03:32:52.271Z,12.70
2023-05-19T03:35:39.548Z,13.77
2023-05-19T03:38:27.109Z,13.07
2023-05-19T03:41:18.250Z,11.93
2023-05-19T03:44:06.139Z,12.17
2023-05-19T03:46:54.543Z,11.93
2023-05-19T03:50:01.309Z,11.87
2023-05-19T03:53:02.678Z,11.27
2023-05-19T03:55:53.422Z,9.97
2023-05-19T03:58:41.113Z,10.70
2023-05-19T04:01:27.978Z,10.27
2023-05-19T04:04:16.853Z,11.17
2023-05-19T04:07:05.837Z,9.40
2023-05-19T04:09:52.780Z,6.97
2023-05-19T04:12:39.880Z,5.37
2023-05-19T04:15:27.236Z,4.73
2023-05-19T04:18:14.283Z,3.57
2023-05-19T04:21:03.026Z,3.47
2023-05-19T04:23:51.115Z,4.50
2023-05-19T04:26:42.552Z,4.00
2023-05-19T04:29:30.153Z,3.33
2023-05-19T04:32:18.626Z,3.77
2023-05-19T04:35:07.011Z,3.70
2023-05-19T04:37:55.654Z,3.73
2023-05-19T04:40:50.350Z,3.73
2023-05-19T04:43:41.552Z,4.10
2023-05-19T04:46:30.143Z,3.70
2023-05-19T04:49:19.606Z,3.83
2023-05-19T04:52:10.765Z,4.20
2023-05-19T04:54:59.321Z,3.30
2023-05-19T04:57:47.047Z,4.23
2023-05-19T05:00:35.872Z,3.43
2023-05-19T05:03:26.562Z,3.30
2023-05-19T05:06:13.948Z,3.70
2023-05-19T05:09:04.077Z,3.57
2023-05-19T05:11:54.137Z,3.60
2023-05-19T05:14:41.759Z,3.87
2023-05-19T05:17:30.448Z,3.47
2023-05-19T05:20:19.744Z,3.50
2023-05-19T05:23:09.545Z,4.40
2023-05-19T05:25:58.819Z,3.90
2023-05-19T05:28:47.293Z,3.70
2023-05-19T05:31:34.842Z,3.67
2023-05-19T05:34:22.681Z,3.37
2023-05-19T05:37:13.165Z,3.27
2023-05-19T05:40:02.118Z,4.40
2023-05-19T05:42:49.715Z,3.00
2023-05-19T05:45:40.776Z,3.27
2023-05-19T05:48:28.793Z,2.87
2023-05-19T05:51:16.881Z,3.47
2023-05-19T05:54:04.624Z,3.43
2023-05-19T05:56:57.087Z,3.20
2023-05-19T05:59:47.350Z,3.70
2023-05-19T06:02:37.062Z,3.40
2023-05-19T06:05:25.234Z,3.30
2023-05-19T06:08:12.367Z,2.97
2023-05-19T06:10:59.912Z,3.20
2023-05-19T06:13:48.933Z,3.47
2023-05-19T06:16:49.564Z,3.40
2023-05-19T06:19:39.154Z,3.30
2023-05-19T06:22:26.396Z,3.17
2023-05-19T06:25:13.929Z,2.50
2023-05-19T06:28:02.451Z,3.27
2023-05-19T06:30:49.853Z,2.87
2023-05-19T06:33:43.520Z,3.13
2023-05-19T06:36:32.469Z,3.60
2023-05-19T06:39:20.174Z,3.23
2023-05-19T06:42:07.313Z,3.40
2023-05-19T06:45:21.760Z,2.93
2023-05-19T06:48:10.917Z,3.10
2023-05-19T06:50:58.371Z,4.40
2023-05-19T06:53:47.769Z,3.70
2023-05-19T06:56:34.893Z,3.70
2023-05-19T06:59:23.264Z,3.40
2023-05-19T07:02:12.057Z,3.07
2023-05-19T07:04:59.227Z,3.40
2023-05-19T07:07:46.833Z,3.60
2023-05-19T07:10:39.593Z,3.70
2023-05-19T07:13:31.125Z,2.93
2023-05-19T07:16:17.873Z,3.00
2023-05-19T07:19:05.719Z,2.97
2023-05-19T07:21:54.917Z,3.50
2023-05-19T07:24:41.943Z,3.57
2023-05-19T07:27:30.303Z,2.93
2023-05-19T07:30:17.558Z,3.00
2023-05-19T07:33:04.699Z,3.87
2023-05-19T07:35:51.737Z,3.00
2023-05-19T07:38:39.413Z,2.70
2023-05-19T07:41:27.529Z,2.28
2023-05-19T07:44:16.586Z,3.08
2023-05-19T07:47:03.875Z,2.72
2023-05-19T07:49:51.847Z,2.88
2023-05-19T07:52:38.896Z,2.40
2023-05-19T07:55:26.697Z,2.72
2023-05-19T07:58:14.006Z,2.40
2023-05-19T08:01:05.877Z,2.63
2023-05-19T08:03:53.337Z,2.47
2023-05-19T08:06:42.818Z,2.63
2023-05-19T08:09:30.143Z,2.55
2023-05-19T08:12:17.126Z,2.35
2023-05-19T08:15:04.402Z,2.35
2023-05-19T08:17:53.317Z,2.25
2023-05-19T08:20:40.198Z,2.40
2023-05-19T08:23:27.524Z,2.40
2023-05-19T08:26:14.856Z,2.97
2023-05-19T08:29:02.587Z,2.10
2023-05-19T08:31:49.828Z,1.73
2023-05-19T08:34:38.211Z,1.60
2023-05-19T08:37:25.648Z,1.87
2023-05-19T08:40:18.338Z,1.83
2023-05-19T08:43:05.555Z,1.90
2023-05-19T08:45:54.596Z,1.80
2023-05-19T08:48:44.380Z,1.90
2023-05-19T08:51:37.466Z,2.20
2023-05-19T08:54:27.604Z,2.00
2023-05-19T08:57:15.368Z,1.58
2023-05-19T09:00:05.054Z,2.17
2023-05-19T09:03:00.232Z,3.00
2023-05-19T09:05:58.765Z,1.73
2023-05-19T09:08:48.204Z,1.83
2023-05-19T09:11:35.802Z,1.57
2023-05-19T09:14:23.910Z,2.00
2023-05-19T09:17:12.237Z,1.90
2023-05-19T09:20:04.582Z,1.83
2023-05-19T09:22:51.521Z,2.00
2023-05-19T09:25:48.566Z,1.53
2023-05-19T09:28:36.863Z,1.70
2023-05-19T09:31:23.945Z,2.23
2023-05-19T09:34:15.679Z,1.73
2023-05-19T09:37:02.765Z,2.10
2023-05-19T09:39:52.311Z,1.60
2023-05-19T09:42:42.006Z,1.73
2023-05-19T09:45:30.358Z,1.90
2023-05-19T09:48:17.764Z,2.37
2023-05-19T09:51:06.513Z,1.67
2023-05-19T09:53:54.301Z,1.87
2023-05-19T09:56:41.384Z,2.03
2023-05-19T09:59:33.485Z,1.83
2023-05-19T10:02:21.786Z,1.90
2023-05-19T10:05:09.559Z,1.90
2023-05-19T10:07:56.865Z,2.00
2023-05-19T10:10:44.715Z,1.63
2023-05-19T10:13:33.407Z,1.90
2023-05-19T10:16:23.800Z,1.70
2023-05-19T10:19:11.669Z,1.93
2023-05-19T10:21:58.734Z,2.00
2023-05-19T10:24:46.123Z,1.63
2023-05-19T10:27:35.835Z,1.90
2023-05-19T10:30:27.811Z,1.53
2023-05-19T10:33:18.171Z,1.70
2023-05-19T10:36:35.507Z,1.77
2023-05-19T10:39:27.973Z,1.67
2023-05-19T10:42:17.959Z,2.00
2023-05-19T10:45:11.111Z,1.63
2023-05-19T10:47:58.565Z,2.00
2023-05-19T10:50:47.776Z,1.50
2023-05-19T10:53:35.217Z,1.80
2023-05-19T10:56:34.236Z,1.80
2023-05-19T10:59:37.217Z,1.80
2023-05-19T11:02:42.005Z,2.60
2023-05-19T11:05:31.319Z,2.73
2023-05-19T11:08:33.366Z,2.37
2023-05-19T11:11:23.331Z,2.47
2023-05-19T11:14:12.846Z,2.33
2023-05-19T11:17:01.097Z,2.17
2023-05-19T11:19:54.621Z,2.47
2023-05-19T11:22:41.669Z,2.93
2023-05-19T11:25:44.702Z,2.60
2023-05-19T11:28:31.937Z,2.30
2023-05-19T11:31:23.059Z,2.63
2023-05-19T11:34:10.975Z,2.70
2023-05-19T11:36:59.450Z,3.07
2023-05-19T11:39:47.785Z,2.73
2023-05-19T11:42:37.709Z,2.93
2023-05-19T11:45:27.852Z,3.20
2023-05-19T11:48:16.036Z,2.77
2023-05-19T11:51:03.417Z,3.13
2023-05-19T11:53:51.756Z,2.80
2023-05-19T11:56:41.841Z,2.70
2023-05-19T11:59:35.769Z,2.53
2023-05-19T12:02:26.091Z,3.17
2023-05-19T12:05:20.728Z,3.03
2023-05-19T12:08:08.857Z,2.87
2023-05-19T12:10:56.364Z,2.60
2023-05-19T12:13:43.384Z,2.33
2023-05-19T12:16:38.114Z,2.83
2023-05-19T12:19:25.932Z,2.60
2023-05-19T12:22:13.561Z,2.83
2023-05-19T12:25:01.870Z,2.40
2023-05-19T12:27:49.920Z,2.67
2023-05-19T12:30:37.533Z,2.03
2023-05-19T12:33:26.470Z,2.23
2023-05-19T12:36:14.038Z,1.70
2023-05-19T12:39:01.360Z,1.90
2023-05-19T12:41:48.424Z,1.93
2023-05-19T12:44:38.566Z,1.80
2023-05-19T12:47:31.976Z,2.03
2023-05-19T12:50:20.349Z,1.87
2023-05-19T12:53:10.279Z,2.00
2023-05-19T12:55:57.492Z,1.57
2023-05-19T12:58:46.096Z,1.70
2023-05-19T13:01:33.168Z,1.60
2023-05-19T13:04:20.346Z,1.33
2023-05-19T13:07:09.961Z,1.37
2023-05-19T13:09:56.951Z,1.60
2023-05-19T13:12:44.302Z,1.70
2023-05-19T13:15:34.995Z,2.13
2023-05-19T13:18:22.215Z,1.80
2023-05-19T13:21:09.485Z,1.87
2023-05-19T13:23:58.566Z,2.17
2023-05-19T13:26:46.050Z,2.07
2023-05-19T13:29:33.504Z,2.30
2023-05-19T13:32:20.756Z,1.87
2023-05-19T13:35:08.616Z,1.50
2023-05-19T13:37:55.809Z,1.30
2023-05-19T13:40:45.885Z,1.47
2023-05-19T13:43:33.133Z,1.47
2023-05-19T13:46:22.299Z,1.23
2023-05-19T13:49:16.582Z,1.47
2023-05-19T13:52:03.552Z,1.20
2023-05-19T13:54:50.891Z,1.47
2023-05-19T13:57:40.054Z,1.30
2023-05-19T14:00:28.039Z,1.53
2023-05-19T14:03:16.297Z,1.50
2023-05-19T14:06:03.490Z,1.23
2023-05-19T14:08:50.601Z,1.27
2023-05-19T14:11:37.858Z,1.50
2023-05-19T14:14:26.774Z,1.40
2023-05-19T14:17:14.027Z,1.10
2023-05-19T14:20:01.843Z,1.07
2023-05-19T14:22:48.580Z,1.10
2023-05-19T14:25:36.192Z,1.40
2023-05-19T14:28:23.072Z,1.20
2023-05-19T14:31:14.635Z,1.00
2023-05-19T14:34:02.692Z,1.10
2023-05-19T14:36:50.344Z,1.00
2023-05-19T14:39:37.566Z,1.10
2023-05-19T14:42:24.937Z,1.20
2023-05-19T14:45:12.986Z,1.20
2023-05-19T14:48:01.380Z,1.40
2023-05-19T14:50:49.239Z,1.27
2023-05-19T14:53:36.372Z,1.47
2023-05-19T14:56:23.696Z,1.43
2023-05-19T14:59:10.790Z,1.20
2023-05-19T15:01:57.798Z,2.43
2023-05-19T15:04:46.507Z,1.20
2023-05-19T15:07:33.696Z,1.67
2023-05-19T15:10:21.254Z,1.10
2023-05-19T15:13:08.288Z,1.30
2023-05-19T15:16:08.203Z,1.60
2023-05-19T15:18:56.046Z,1.40
2023-05-19T15:21:45.835Z,1.20
2023-05-19T15:24:33.130Z,1.50
2023-05-19T15:27:20.827Z,1.57
2023-05-19T15:30:08.787Z,1.40
2023-05-19T15:32:56.173Z,0.93
2023-05-19T15:35:43.533Z,1.17
2023-05-19T15:38:32.079Z,1.30
2023-05-19T15:41:20.426Z,1.07
2023-05-19T15:44:07.877Z,1.03
2023-05-19T15:46:55.138Z,1.20
2023-05-19T15:49:42.343Z,1.20
2023-05-19T15:52:29.646Z,1.40
2023-05-19T15:55:18.291Z,1.37
2023-05-19T15:58:05.618Z,1.10
2023-05-19T16:00:52.856Z,1.03
2023-05-19T16:03:40.882Z,1.20
2023-05-19T16:06:28.089Z,1.00
2023-05-19T16:09:15.321Z,1.10
2023-05-19T16:12:04.274Z,1.30
2023-05-19T16:14:51.374Z,1.03
2023-05-19T16:17:38.345Z,1.00
2023-05-19T16:20:28.084Z,1.27
2023-05-19T16:23:15.198Z,1.03
2023-05-19T16:26:02.179Z,1.23
2023-05-19T16:28:50.769Z,0.73
2023-05-19T16:31:37.816Z,1.20
2023-05-19T16:34:25.478Z,1.07
2023-05-19T16:38:08.772Z,1.20
2023-05-19T16:49:35.966Z,1.20
2023-05-19T16:52:23.287Z,1.70
2023-05-19T16:55:11.144Z,1.00
2023-05-19T16:57:58.016Z,1.00
2023-05-19T17:00:45.308Z,1.20
2023-05-19T17:03:32.903Z,1.73
2023-05-19T17:06:21.681Z,1.27
2023-05-19T17:09:09.160Z,1.07
2023-05-19T17:11:56.419Z,1.37
2023-05-19T17:14:44.204Z,1.13
2023-05-19T17:17:31.472Z,1.17
2023-05-19T17:20:18.835Z,1.03
2023-05-19T17:23:07.668Z,1.40
2023-05-19T17:25:55.995Z,0.90
2023-05-19T17:28:43.198Z,0.90
2023-05-19T17:31:30.323Z,1.10
2023-05-19T17:34:17.307Z,0.90
2023-05-19T17:37:04.763Z,1.30
2023-05-19T17:39:53.600Z,1.20
2023-05-19T17:42:40.819Z,1.20
2023-05-19T17:45:27.727Z,1.27
2023-05-19T17:48:14.707Z,1.03
2023-05-19T17:51:03.933Z,0.90
2023-05-19T17:53:52.860Z,1.23
2023-05-19T17:56:43.688Z,0.90
2023-05-19T17:59:31.509Z,1.27
2023-05-19T18:02:19.296Z,1.00
2023-05-19T18:05:07.645Z,1.00
2023-05-19T18:07:55.917Z,1.10
2023-05-19T18:10:43.989Z,1.50
2023-05-19T18:13:32.559Z,3.20
2023-05-19T18:16:19.556Z,1.30
2023-05-19T18:19:07.416Z,1.10
2023-05-19T18:21:54.482Z,1.00
2023-05-19T18:24:41.730Z,1.10
2023-05-19T18:27:29.065Z,1.27
2023-05-19T18:30:17.709Z,1.20
2023-05-19T18:33:05.999Z,1.20
2023-05-19T18:35:53.053Z,1.47
2023-05-19T18:38:40.144Z,1.30
2023-05-19T18:41:27.560Z,1.40
2023-05-19T18:44:14.917Z,1.10
2023-05-19T18:47:03.703Z,0.63
2023-05-19T18:49:51.141Z,0.93
2023-05-19T18:52:38.526Z,1.20
2023-05-19T18:55:25.834Z,1.07
2023-05-19T18:58:13.013Z,0.97
2023-05-19T19:01:00.419Z,0.93
2023-05-19T19:03:49.376Z,1.03
2023-05-19T19:06:36.438Z,1.20
2023-05-19T19:09:23.691Z,1.20
2023-05-19T19:12:11.233Z,0.80
2023-05-19T19:14:58.371Z,1.30
2023-05-19T19:17:45.801Z,0.90
2023-05-19T19:20:34.665Z,1.00
2023-05-19T19:23:21.636Z,1.27
2023-05-19T19:26:09.684Z,1.20
2023-05-19T19:28:57.319Z,0.90
2023-05-19T19:31:44.426Z,1.60
2023-05-19T19:34:31.663Z,1.17
2023-05-19T19:37:20.038Z,1.33
2023-05-19T19:40:08.641Z,1.43
2023-05-19T19:42:55.895Z,1.00
2023-05-19T19:45:42.728Z,1.40
2023-05-19T19:48:30.180Z,1.33
2023-05-19T19:51:17.464Z,1.10
2023-05-19T19:54:06.398Z,1.30
2023-05-19T19:56:53.629Z,1.10
2023-05-19T19:59:40.786Z,1.30
2023-05-19T20:02:27.704Z,0.93
2023-05-19T20:05:15.113Z,1.07
2023-05-19T20:08:02.096Z,1.10
2023-05-19T20:10:50.594Z,0.90
2023-05-19T20:13:37.877Z,1.40
2023-05-19T20:16:25.256Z,1.07
2023-05-19T20:19:12.930Z,1.00
2023-05-19T20:22:00.695Z,0.90
2023-05-19T20:24:48.017Z,0.90
2023-05-19T20:27:36.709Z,0.90
2023-05-19T20:30:24.006Z,1.20
2023-05-19T20:33:12.925Z,0.90
2023-05-19T20:35:59.808Z,0.90
2023-05-19T20:38:48.040Z,0.83
2023-05-19T20:41:35.077Z,0.70
2023-05-19T20:44:23.977Z,1.00
2023-05-19T20:47:11.566Z,0.80
2023-05-19T20:49:58.928Z,1.20
2023-05-19T20:52:46.246Z,1.00
2023-05-19T20:55:33.797Z,0.90
2023-05-19T20:58:20.826Z,0.90
2023-05-19T21:01:09.509Z,1.20
2023-05-19T21:03:56.361Z,1.00
2023-05-19T21:06:43.349Z,1.00
2023-05-19T21:09:30.273Z,1.00
2023-05-19T21:12:17.328Z,1.80
2023-05-19T21:15:06.080Z,1.40
2023-05-19T21:17:54.544Z,1.70
2023-05-19T21:20:41.944Z,1.60
2023-05-19T21:23:29.304Z,1.23
2023-05-19T21:26:16.667Z,1.03
2023-05-19T21:29:03.678Z,1.30
2023-05-19T21:31:52.578Z,1.10
2023-05-19T21:34:41.425Z,1.27
2023-05-19T21:37:28.603Z,1.17
2023-05-19T21:40:15.780Z,1.10
2023-05-19T21:43:03.054Z,1.20
2023-05-19T21:45:50.293Z,1.40
2023-05-19T21:48:37.413Z,1.10
2023-05-19T21:51:26.108Z,1.20
2023-05-19T21:54:12.969Z,1.97
2023-05-19T21:57:00.151Z,1.10
2023-05-19T21:59:47.304Z,1.60
2023-05-19T22:02:34.996Z,1.50
2023-05-19T22:05:22.330Z,1.80
2023-05-19T22:08:10.587Z,0.97
2023-05-19T22:10:57.765Z,1.33
2023-05-19T22:13:45.094Z,1.00
2023-05-19T22:16:32.711Z,1.30
2023-05-19T22:19:20.475Z,1.70
2023-05-19T22:22:14.323Z,1.23
2023-05-19T22:25:03.871Z,2.50
2023-05-19T22:27:51.153Z,1.30
2023-05-19T22:30:41.049Z,1.17
2023-05-19T22:33:28.403Z,1.30
2023-05-19T22:36:16.170Z,1.13
2023-05-19T22:39:03.076Z,1.13
2023-05-19T22:41:51.756Z,1.30
2023-05-19T22:44:38.633Z,1.50
2023-05-19T22:47:25.889Z,1.10
2023-05-19T22:50:13.306Z,1.10
2023-05-19T22:53:00.278Z,1.17
2023-05-19T22:55:47.101Z,1.10
2023-05-19T22:58:35.917Z,1.40
2023-05-19T23:01:23.352Z,1.30
2023-05-19T23:04:11.605Z,1.60
2023-05-19T23:06:58.460Z,1.10
2023-05-19T23:09:45.870Z,1.30
2023-05-19T23:12:32.863Z,1.33
2023-05-19T23:15:21.527Z,1.50
2023-05-19T23:18:08.876Z,0.97
2023-05-19T23:20:56.152Z,0.83
2023-05-19T23:23:42.990Z,1.10
2023-05-19T23:26:30.056Z,1.10
2023-05-19T23:29:17.010Z,1.10
2023-05-19T23:32:06.119Z,1.00
2023-05-19T23:34:53.285Z,1.20
2023-05-19T23:37:40.811Z,0.90
2023-05-19T23:40:28.333Z,1.30
2023-05-19T23:43:15.613Z,1.30
2023-05-19T23:46:02.974Z,1.33
2023-05-19T23:48:51.880Z,1.30
2023-05-19T23:51:39.523Z,1.20
2023-05-19T23:54:26.880Z,1.10
2023-05-19T23:57:14.029Z,1.13
